Time;durP1;ratioP1;P1;durP2;ratioP2;P2;SDS_P1;SDS_P2;PMS_P1;PMS_P2;Temp;Humidity;BMP_temperature;BMP_pressure;BME280_temperature;BME280_humidity;BME280_pressure;Samples;Min_cycle;Max_cycle;Signal;HPM_P1;HPM_P2
2021/06/12 00:02:04;;;;;;;31.83;26.08;;;18.70;99.90;;;;;;5092238;28;20051;-66
2021/06/12 00:04:48;;;;;;;32.50;25.00;;;18.70;99.90;;;;;;5092796;28;20048;-66
2021/06/12 00:07:26;;;;;;;32.47;25.67;;;18.70;99.90;;;;;;5093224;28;20036;-66
2021/06/12 00:10:09;;;;;;;27.67;24.20;;;18.70;99.90;;;;;;5086474;28;20113;-66
2021/06/12 00:12:55;;;;;;;31.88;24.73;;;18.70;99.90;;;;;;5091554;28;20044;-66
2021/06/12 00:15:26;;;;;;;30.27;25.27;;;18.70;99.90;;;;;;5091790;28;20551;-66
2021/06/12 00:18:12;;;;;;;28.40;23.30;;;18.70;99.90;;;;;;5092699;28;20473;-66
2021/06/12 00:20:54;;;;;;;29.83;24.35;;;18.70;99.90;;;;;;5092090;28;20044;-67
2021/06/12 00:23:40;;;;;;;30.70;25.02;;;18.70;99.90;;;;;;5092125;28;20040;-66
2021/06/12 00:26:06;;;;;;;30.58;24.27;;;18.70;99.90;;;;;;5090517;28;20458;-67
2021/06/12 00:28:47;;;;;;;27.93;24.93;;;18.70;99.90;;;;;;5072656;28;20053;-66
2021/06/12 00:31:15;;;;;;;27.98;24.65;;;18.70;99.90;;;;;;5088790;28;20685;-66
2021/06/12 00:33:41;;;;;;;30.35;25.20;;;18.70;99.90;;;;;;5092545;28;20480;-66
2021/06/12 00:36:09;;;;;;;27.90;23.48;;;18.70;99.90;;;;;;5091974;28;20432;-66
2021/06/12 00:38:43;;;;;;;28.73;23.38;;;18.70;99.90;;;;;;5092549;28;20043;-66
2021/06/12 00:41:09;;;;;;;26.67;23.75;;;18.70;99.90;;;;;;5092249;28;20047;-66
2021/06/12 00:43:36;;;;;;;28.40;24.63;;;18.70;99.90;;;;;;5092307;28;20090;-66
2021/06/12 00:46:03;;;;;;;29.52;25.02;;;18.60;99.90;;;;;;5092281;28;20058;-67
2021/06/12 00:48:29;;;;;;;31.95;25.73;;;18.70;99.90;;;;;;5092378;28;20040;-66
2021/06/12 00:50:57;;;;;;;29.20;23.50;;;18.70;99.90;;;;;;5090766;28;20098;-66
2021/06/12 00:53:42;;;;;;;30.58;25.35;;;18.70;99.90;;;;;;5092218;28;20043;-67
2021/06/12 00:56:15;;;;;;;28.88;24.05;;;18.70;99.90;;;;;;5091729;28;20051;-66
2021/06/12 00:58:47;;;;;;;27.55;23.38;;;18.70;99.90;;;;;;5092363;28;20040;-66
2021/06/12 01:01:16;;;;;;;28.58;23.42;;;18.80;99.90;;;;;;5091770;28;20108;-66
2021/06/12 01:03:45;;;;;;;31.88;25.85;;;18.80;99.90;;;;;;5092335;28;20139;-66
2021/06/12 01:06:20;;;;;;;30.52;25.85;;;18.80;99.90;;;;;;5091663;28;20398;-66
2021/06/12 01:11:17;;;;;;;31.10;25.75;;;18.80;99.90;;;;;;5060377;28;20045;-71
2021/06/12 01:14:10;;;;;;;34.22;27.65;;;18.80;99.90;;;;;;5051459;28;20493;-71
2021/06/12 01:17:07;;;;;;;29.80;25.05;;;18.80;99.90;;;;;;5036513;28;20122;-72
2021/06/12 01:20:15;;;;;;;35.25;28.15;;;18.70;99.90;;;;;;5036456;28;20053;-71
2021/06/12 01:23:10;;;;;;;32.10;26.23;;;18.70;99.90;;;;;;5036043;28;20056;-72
2021/06/12 01:26:16;;;;;;;28.98;24.42;;;18.70;99.90;;;;;;5035657;28;20056;-71
2021/06/12 01:29:35;;;;;;;32.28;27.52;;;18.70;99.90;;;;;;5023464;28;20552;-72
2021/06/12 01:32:22;;;;;;;32.97;27.25;;;18.60;99.90;;;;;;5036625;28;20502;-71
2021/06/12 01:35:14;;;;;;;34.58;27.83;;;18.60;99.90;;;;;;5042136;28;20048;-71
2021/06/12 01:38:01;;;;;;;30.90;26.17;;;18.60;99.90;;;;;;5049946;28;20137;-72
2021/06/12 01:40:49;;;;;;;32.45;26.83;;;18.60;99.90;;;;;;5022584;28;20048;-73
2021/06/12 01:43:37;;;;;;;30.42;25.90;;;18.60;99.90;;;;;;5036621;28;20048;-70
2021/06/12 01:46:24;;;;;;;30.83;26.85;;;18.60;99.90;;;;;;5036051;28;20383;-71
2021/06/12 01:49:10;;;;;;;30.27;26.73;;;18.50;99.90;;;;;;5050892;28;20072;-70
2021/06/12 01:51:56;;;;;;;32.72;27.92;;;18.50;99.90;;;;;;5055971;28;20139;-70
2021/06/12 01:54:43;;;;;;;34.28;28.17;;;18.50;99.90;;;;;;5023934;28;20182;-70
2021/06/12 01:57:30;;;;;;;30.27;26.63;;;18.40;99.90;;;;;;5044475;28;20097;-70
2021/06/12 02:00:16;;;;;;;33.90;28.60;;;18.40;99.90;;;;;;5036378;28;20053;-70
2021/06/12 02:03:03;;;;;;;30.83;26.48;;;18.40;99.90;;;;;;5025791;28;20140;-70
2021/06/12 02:05:50;;;;;;;30.83;26.65;;;18.40;99.90;;;;;;5056040;28;20060;-70
2021/06/12 02:08:39;;;;;;;32.00;26.13;;;18.40;99.90;;;;;;5055844;28;20052;-70
2021/06/12 02:11:25;;;;;;;32.53;26.33;;;18.30;99.90;;;;;;5075951;28;20056;-70
2021/06/12 02:14:14;;;;;;;31.23;27.23;;;18.30;99.90;;;;;;5061397;28;20056;-71
2021/06/12 02:17:01;;;;;;;30.55;26.23;;;18.30;99.90;;;;;;5069966;28;20048;-71
2021/06/12 02:19:47;;;;;;;31.98;28.27;;;18.30;99.90;;;;;;5055420;28;20067;-71
2021/06/12 02:22:36;;;;;;;29.67;25.95;;;18.30;99.90;;;;;;5055906;28;20065;-71
2021/06/12 02:25:23;;;;;;;33.17;26.02;;;18.20;99.90;;;;;;5035977;28;20048;-71
2021/06/12 02:28:12;;;;;;;31.65;26.92;;;18.20;99.90;;;;;;5043517;28;20131;-71
2021/06/12 02:31:14;;;;;;;32.15;26.77;;;18.20;99.90;;;;;;5060098;28;20080;-71
2021/06/12 02:34:00;;;;;;;30.20;25.52;;;18.20;99.90;;;;;;5063429;28;20076;-71
2021/06/12 02:36:46;;;;;;;30.27;26.42;;;18.20;99.90;;;;;;5039936;28;20063;-71
2021/06/12 02:39:32;;;;;;;29.60;26.13;;;18.10;99.90;;;;;;5054523;28;20078;-71
2021/06/12 02:42:19;;;;;;;32.83;25.60;;;18.20;99.90;;;;;;5059602;28;20052;-71
2021/06/12 02:45:08;;;;;;;29.63;25.05;;;18.20;99.90;;;;;;5050905;28;20056;-71
2021/06/12 02:48:07;;;;;;;29.95;25.42;;;18.20;99.90;;;;;;5056996;28;20041;-71
2021/06/12 02:50:53;;;;;;;30.65;26.23;;;18.20;99.90;;;;;;5025773;28;20045;-71
2021/06/12 02:53:42;;;;;;;29.58;25.63;;;18.20;99.90;;;;;;5043173;28;20048;-71
2021/06/12 02:56:31;;;;;;;30.45;25.42;;;18.20;99.90;;;;;;5056770;28;20131;-71
2021/06/12 02:59:18;;;;;;;29.33;25.45;;;18.20;99.90;;;;;;5058663;28;20056;-71
2021/06/12 03:02:06;;;;;;;31.05;26.80;;;18.20;99.90;;;;;;5059013;28;20071;-71
2021/06/12 03:04:53;;;;;;;30.25;23.67;;;18.10;99.90;;;;;;5054426;28;20135;-71
2021/06/12 03:07:40;;;;;;;32.70;27.45;;;18.10;99.90;;;;;;5059275;28;20044;-71
2021/06/12 03:10:33;;;;;;;32.63;27.75;;;18.10;99.90;;;;;;5039088;28;20470;-71
2021/06/12 03:13:23;;;;;;;30.70;25.50;;;18.00;99.90;;;;;;5042165;28;20059;-71
2021/06/12 03:15:50;;;;;;;30.52;26.48;;;18.00;99.90;;;;;;5065761;28;20064;-71
2021/06/12 03:18:37;;;;;;;34.10;29.00;;;18.00;99.90;;;;;;5039108;28;20068;-71
2021/06/12 03:21:25;;;;;;;35.45;28.23;;;18.00;99.90;;;;;;5038685;28;20044;-71
2021/06/12 03:24:12;;;;;;;34.15;26.55;;;18.00;99.90;;;;;;5047002;28;20056;-71
2021/06/12 03:26:59;;;;;;;31.08;26.90;;;18.00;99.90;;;;;;5058005;28;20088;-71
2021/06/12 03:29:27;;;;;;;33.20;28.80;;;18.00;99.90;;;;;;5060317;28;20041;-71
2021/06/12 03:31:57;;;;;;;35.65;28.40;;;18.00;99.90;;;;;;5053115;28;20117;-71
2021/06/12 03:34:45;;;;;;;36.97;30.02;;;18.00;99.90;;;;;;5052583;28;20590;-71
2021/06/12 03:37:29;;;;;;;36.55;28.77;;;18.00;99.90;;;;;;5072846;28;20040;-71
2021/06/12 03:39:55;;;;;;;38.75;29.25;;;18.10;99.90;;;;;;5058776;28;20041;-71
2021/06/12 03:42:34;;;;;;;35.10;29.85;;;18.10;99.90;;;;;;5053191;28;20332;-71
2021/06/12 03:45:07;;;;;;;35.35;29.98;;;18.10;99.90;;;;;;5068582;28;20033;-71
2021/06/12 03:47:56;;;;;;;36.05;28.90;;;18.20;99.90;;;;;;5072269;28;20049;-71
2021/06/12 03:50:38;;;;;;;34.72;30.90;;;18.10;99.90;;;;;;5053191;28;20087;-71
2021/06/12 03:53:30;;;;;;;37.50;30.00;;;18.10;99.90;;;;;;5038964;28;20045;-71
2021/06/12 03:56:18;;;;;;;30.98;27.45;;;18.10;99.90;;;;;;5058077;28;20481;-71
2021/06/12 03:59:07;;;;;;;36.00;29.20;;;18.20;99.90;;;;;;5057482;28;20037;-71
2021/06/12 04:01:54;;;;;;;35.20;28.77;;;18.20;99.90;;;;;;5044418;28;20055;-71
2021/06/12 04:04:40;;;;;;;31.58;26.73;;;18.20;99.90;;;;;;5057166;28;20407;-71
2021/06/12 04:07:26;;;;;;;32.42;27.75;;;18.30;99.90;;;;;;5058204;28;20100;-71
2021/06/12 04:09:53;;;;;;;33.28;27.80;;;18.30;99.90;;;;;;5060855;28;20111;-72
2021/06/12 04:12:22;;;;;;;30.80;26.52;;;18.30;99.90;;;;;;5052838;28;20041;-71
2021/06/12 04:14:49;;;;;;;33.38;26.67;;;18.40;99.90;;;;;;5063223;28;20041;-71
2021/06/12 04:17:35;;;;;;;31.15;26.75;;;18.40;99.90;;;;;;5057938;28;20045;-71
2021/06/12 04:20:20;;;;;;;31.58;25.83;;;18.40;99.90;;;;;;5055986;28;20094;-71
2021/06/12 04:23:06;;;;;;;33.60;27.23;;;18.40;99.90;;;;;;5057908;28;20052;-71
2021/06/12 04:25:52;;;;;;;30.90;25.25;;;18.40;99.90;;;;;;5051440;28;20474;-71
2021/06/12 04:28:38;;;;;;;28.52;23.35;;;18.40;99.90;;;;;;5053855;28;20831;-71
2021/06/12 04:31:23;;;;;;;32.33;25.33;;;18.50;99.80;;;;;;5057764;28;20063;-71
2021/06/12 04:34:09;;;;;;;31.02;25.70;;;18.50;99.70;;;;;;5051141;28;20119;-71
2021/06/12 04:36:55;;;;;;;27.67;23.52;;;18.60;99.50;;;;;;5041977;28;20076;-71
2021/06/12 04:39:41;;;;;;;24.92;20.48;;;18.60;99.90;;;;;;5057304;28;20052;-71
2021/06/12 04:42:26;;;;;;;25.70;22.00;;;18.60;99.00;;;;;;5043010;28;20040;-71
2021/06/12 04:44:55;;;;;;;28.67;23.45;;;18.70;99.80;;;;;;5071997;28;20045;-71
2021/06/12 04:47:21;;;;;;;29.65;24.65;;;18.80;99.00;;;;;;5070745;28;20064;-71
2021/06/12 04:49:50;;;;;;;26.05;21.85;;;18.80;99.10;;;;;;5070853;28;20494;-72
2021/06/12 04:52:17;;;;;;;28.90;24.17;;;18.80;99.00;;;;;;5065752;28;20021;-71
2021/06/12 04:54:43;;;;;;;28.10;20.73;;;18.90;98.90;;;;;;5051693;28;20524;-71
2021/06/12 04:57:08;;;;;;;25.75;21.15;;;18.90;98.50;;;;;;5056570;28;20379;-71
2021/06/12 04:59:34;;;;;;;25.63;22.05;;;18.90;98.70;;;;;;5071862;28;20040;-71
2021/06/12 05:02:01;;;;;;;26.17;22.65;;;18.90;98.60;;;;;;5070458;28;20111;-71
2021/06/12 05:04:27;;;;;;;30.45;22.70;;;18.90;98.90;;;;;;5071652;28;20067;-71
2021/06/12 05:06:54;;;;;;;27.38;22.33;;;18.90;99.10;;;;;;5068421;28;20040;-72
2021/06/12 05:09:24;;;;;;;25.37;20.60;;;19.00;99.10;;;;;;5051660;28;20057;-71
2021/06/12 05:11:51;;;;;;;25.17;20.40;;;19.00;98.90;;;;;;5051910;28;20284;-71
2021/06/12 05:14:18;;;;;;;23.38;19.75;;;19.00;99.20;;;;;;5051600;28;20041;-72
2021/06/12 05:16:44;;;;;;;23.00;18.55;;;19.00;98.40;;;;;;5052465;28;20040;-71
2021/06/12 05:19:11;;;;;;;25.85;20.38;;;19.10;98.40;;;;;;5066908;28;20037;-71
2021/06/12 05:21:39;;;;;;;24.95;19.85;;;19.10;98.40;;;;;;5070763;28;20131;-71
2021/06/12 05:24:07;;;;;;;23.50;19.92;;;19.10;98.70;;;;;;5071128;28;20098;-71
2021/06/12 05:26:39;;;;;;;22.45;18.60;;;19.20;98.50;;;;;;5071020;28;20478;-72
2021/06/12 05:29:07;;;;;;;22.65;18.33;;;19.30;98.20;;;;;;5071315;28;20048;-71
2021/06/12 05:31:33;;;;;;;23.55;19.00;;;19.40;98.30;;;;;;5071045;28;20037;-71
2021/06/12 05:33:59;;;;;;;22.80;19.33;;;19.50;97.70;;;;;;5071253;28;20044;-71
2021/06/12 05:36:27;;;;;;;19.70;16.88;;;19.50;99.50;;;;;;5071199;28;20040;-71
2021/06/12 05:38:54;;;;;;;18.48;15.88;;;19.60;98.30;;;;;;5071036;28;20076;-71
2021/06/12 05:41:20;;;;;;;18.60;14.48;;;19.60;98.00;;;;;;5070950;28;20076;-71
2021/06/12 05:43:48;;;;;;;19.33;12.85;;;19.50;99.10;;;;;;5053310;28;20516;-72
2021/06/12 05:46:13;;;;;;;15.30;11.98;;;19.60;98.60;;;;;;5071104;28;20127;-72
2021/06/12 05:48:39;;;;;;;17.15;11.82;;;19.70;98.60;;;;;;5053085;28;20097;-72
2021/06/12 05:51:07;;;;;;;15.30;11.35;;;19.90;98.20;;;;;;5070812;28;20040;-72
2021/06/12 05:53:33;;;;;;;15.38;10.63;;;20.00;97.60;;;;;;5070826;28;20041;-72
2021/06/12 05:56:00;;;;;;;13.85;10.02;;;20.00;97.70;;;;;;5077309;28;20032;-72
2021/06/12 05:58:27;;;;;;;13.95;10.27;;;19.90;97.70;;;;;;5070985;28;20072;-71
2021/06/12 06:00:54;;;;;;;13.85;9.70;;;20.00;97.10;;;;;;5066784;28;20039;-72
2021/06/12 06:03:26;;;;;;;13.70;8.68;;;20.40;97.30;;;;;;5069230;28;20041;-72
2021/06/12 06:05:51;;;;;;;12.15;9.13;;;20.90;95.90;;;;;;5071117;28;20077;-72
2021/06/12 06:08:17;;;;;;;12.35;9.35;;;20.80;95.40;;;;;;5069975;28;20036;-71
2021/06/12 06:10:44;;;;;;;13.10;8.07;;;20.70;95.60;;;;;;5069868;28;20055;-72
2021/06/12 06:13:18;;;;;;;13.65;8.35;;;20.50;95.80;;;;;;5069782;28;20084;-73
2021/06/12 06:15:56;;;;;;;14.48;9.30;;;20.30;95.80;;;;;;5070126;28;20049;-73
2021/06/12 06:18:42;;;;;;;11.32;8.93;;;20.10;96.00;;;;;;5053678;28;20071;-73
2021/06/12 06:21:19;;;;;;;10.85;8.60;;;20.20;95.90;;;;;;5070233;28;20439;-72
2021/06/12 06:23:48;;;;;;;11.27;8.60;;;20.20;96.00;;;;;;5061698;28;20127;-71
2021/06/12 06:26:14;;;;;;;10.25;7.60;;;20.20;95.90;;;;;;5068849;28;20123;-72
2021/06/12 06:28:44;;;;;;;12.55;7.65;;;20.20;95.90;;;;;;5069151;28;20086;-73
2021/06/12 06:31:09;;;;;;;12.55;6.72;;;20.30;95.00;;;;;;5051453;28;20047;-73
2021/06/12 06:33:36;;;;;;;8.50;6.38;;;20.50;95.10;;;;;;5066410;28;20123;-72
2021/06/12 06:36:09;;;;;;;8.90;6.70;;;20.90;94.50;;;;;;5052450;28;20132;-72
2021/06/12 06:38:36;;;;;;;9.50;6.47;;;21.10;94.40;;;;;;5070347;28;20047;-72
2021/06/12 06:41:03;;;;;;;10.65;7.25;;;21.50;94.00;;;;;;5070146;28;20047;-73
2021/06/12 06:43:29;;;;;;;10.63;6.45;;;21.90;92.50;;;;;;5053950;28;20043;-72
2021/06/12 06:45:57;;;;;;;8.35;6.45;;;22.10;92.80;;;;;;5070401;28;20068;-73
2021/06/12 06:48:26;;;;;;;9.25;6.18;;;22.20;92.00;;;;;;5051668;28;20384;-72
2021/06/12 06:50:52;;;;;;;9.35;7.22;;;22.10;92.40;;;;;;5032648;28;20033;-73
2021/06/12 06:53:32;;;;;;;9.02;6.28;;;21.90;92.00;;;;;;5066374;28;20064;-73
2021/06/12 06:56:06;;;;;;;8.02;6.00;;;21.60;92.60;;;;;;5070480;28;20290;-73
2021/06/12 06:58:43;;;;;;;8.35;5.97;;;21.30;92.80;;;;;;5051588;28;20063;-76
2021/06/12 07:01:09;;;;;;;10.85;5.80;;;21.30;93.00;;;;;;5068817;28;20066;-73
2021/06/12 07:03:35;;;;;;;6.22;4.32;;;21.20;92.70;;;;;;5070189;28;20037;-73
2021/06/12 07:06:00;;;;;;;7.45;5.13;;;21.30;92.90;;;;;;5069062;28;20107;-73
2021/06/12 07:08:29;;;;;;;6.07;4.22;;;21.30;93.00;;;;;;5050581;28;20064;-73
2021/06/12 07:10:55;;;;;;;7.70;4.40;;;21.50;92.50;;;;;;5050335;28;20154;-73
2021/06/12 07:13:23;;;;;;;6.68;3.70;;;21.80;90.60;;;;;;5055259;28;20040;-73
2021/06/12 07:15:49;;;;;;;8.35;4.05;;;22.30;91.50;;;;;;5073039;28;20095;-73
2021/06/12 07:18:35;;;;;;;6.18;3.67;;;22.60;87.60;;;;;;5058507;28;20106;-73
2021/06/12 07:21:01;;;;;;;4.80;3.47;;;22.60;89.80;;;;;;5074046;28;20469;-73
2021/06/12 07:23:33;;;;;;;7.80;3.78;;;22.50;86.60;;;;;;5055652;28;20041;-73
2021/06/12 07:26:02;;;;;;;6.45;3.70;;;22.30;86.10;;;;;;5055395;28;20036;-72
2021/06/12 07:28:28;;;;;;;9.48;3.97;;;22.30;87.30;;;;;;5056117;28;20510;-72
2021/06/12 07:30:55;;;;;;;5.78;3.70;;;21.90;89.30;;;;;;5062575;28;20066;-72
2021/06/12 07:33:21;;;;;;;4.90;3.47;;;22.00;88.90;;;;;;5055461;28;20036;-72
2021/06/12 07:35:47;;;;;;;6.57;3.45;;;22.20;89.20;;;;;;5071761;28;20032;-72
2021/06/12 07:38:13;;;;;;;5.35;3.13;;;22.30;89.20;;;;;;5073154;28;20040;-72
2021/06/12 07:40:39;;;;;;;6.00;3.40;;;22.50;89.60;;;;;;5069105;28;20045;-72
2021/06/12 07:43:06;;;;;;;6.93;3.47;;;22.50;88.00;;;;;;5035838;28;20044;-72
2021/06/12 07:45:32;;;;;;;6.43;3.80;;;22.90;87.80;;;;;;5041099;28;20116;-72
2021/06/12 07:47:58;;;;;;;8.55;3.55;;;22.90;83.40;;;;;;5068393;28;20041;-72
2021/06/12 07:50:25;;;;;;;6.25;2.58;;;22.10;83.50;;;;;;5059971;28;20466;-72
2021/06/12 07:52:51;;;;;;;5.18;2.90;;;22.10;84.70;;;;;;5060454;28;21904;-72
2021/06/12 07:55:17;;;;;;;5.95;3.25;;;22.40;87.40;;;;;;5064241;28;20682;-72
2021/06/12 07:57:43;;;;;;;6.03;3.42;;;22.10;85.00;;;;;;5052116;28;20033;-72
2021/06/12 08:00:10;;;;;;;4.97;2.90;;;21.70;84.60;;;;;;5062682;28;20044;-72
2021/06/12 08:02:36;;;;;;;5.97;3.28;;;22.00;86.00;;;;;;5067571;28;20045;-72
2021/06/12 08:05:04;;;;;;;7.05;2.92;;;22.00;85.80;;;;;;5054408;28;20033;-71
2021/06/12 08:07:30;;;;;;;10.45;3.45;;;22.00;88.40;;;;;;5071192;28;20462;-71
2021/06/12 08:09:57;;;;;;;4.53;2.70;;;21.90;87.50;;;;;;5071815;28;20434;-71
2021/06/12 08:12:23;;;;;;;7.35;3.00;;;21.70;86.30;;;;;;5040095;28;20124;-71
2021/06/12 08:14:50;;;;;;;6.20;2.63;;;21.40;84.20;;;;;;5057471;28;20131;-71
2021/06/12 08:17:15;;;;;;;6.43;2.67;;;21.40;86.10;;;;;;5063554;28;20478;-72
2021/06/12 08:19:42;;;;;;;9.27;3.08;;;21.30;83.90;;;;;;5059449;28;20063;-71
2021/06/12 08:22:10;;;;;;;7.78;2.90;;;21.40;87.60;;;;;;5072768;28;20565;-69
2021/06/12 08:24:37;;;;;;;5.97;2.65;;;21.60;85.50;;;;;;5053304;28;20033;-72
2021/06/12 08:27:03;;;;;;;6.35;3.00;;;21.70;87.40;;;;;;5052770;28;20083;-72
2021/06/12 08:29:29;;;;;;;4.57;2.80;;;21.90;83.00;;;;;;5065159;28;20535;-71
2021/06/12 08:31:54;;;;;;;6.38;2.75;;;21.80;81.00;;;;;;5067772;28;20025;-70
2021/06/12 08:34:22;;;;;;;6.18;2.38;;;22.00;87.10;;;;;;5072070;28;20082;-69
2021/06/12 08:36:48;;;;;;;7.05;3.05;;;22.10;88.00;;;;;;5072308;28;20431;-72
2021/06/12 08:39:14;;;;;;;4.55;2.50;;;22.00;82.90;;;;;;5071800;28;20032;-72
2021/06/12 08:41:40;;;;;;;5.50;2.67;;;21.90;80.60;;;;;;5072017;28;20429;-72
2021/06/12 08:44:10;;;;;;;4.80;2.45;;;21.90;83.00;;;;;;5072016;28;20412;-72
2021/06/12 08:46:36;;;;;;;6.00;2.67;;;22.00;82.20;;;;;;5070380;28;20048;-71
2021/06/12 08:49:02;;;;;;;7.53;2.67;;;22.00;83.40;;;;;;5071671;28;20033;-72
2021/06/12 08:51:28;;;;;;;6.22;2.63;;;21.90;83.00;;;;;;5072258;28;20478;-72
2021/06/12 08:53:53;;;;;;;7.88;3.35;;;21.20;81.30;;;;;;5071904;28;20047;-72
2021/06/12 08:56:19;;;;;;;4.05;2.40;;;21.10;82.90;;;;;;5071734;28;20477;-73
2021/06/12 08:58:45;;;;;;;5.07;2.33;;;21.00;87.00;;;;;;5071818;28;20405;-71
2021/06/12 09:01:11;;;;;;;4.63;2.70;;;21.10;87.10;;;;;;5071750;28;20046;-72
2021/06/12 09:03:46;;;;;;;5.70;2.60;;;21.30;88.50;;;;;;5070160;28;20493;-72
2021/06/12 09:06:13;;;;;;;6.10;2.60;;;21.50;88.30;;;;;;5071717;28;20127;-71
2021/06/12 09:08:41;;;;;;;6.43;2.40;;;21.20;83.60;;;;;;5071673;28;20032;-71
2021/06/12 09:11:19;;;;;;;7.85;2.35;;;21.40;85.10;;;;;;5071594;28;20740;-71
2021/06/12 09:13:54;;;;;;;4.32;2.15;;;21.40;83.10;;;;;;5071522;28;20462;-70
2021/06/12 09:16:37;;;;;;;4.88;2.17;;;21.50;87.20;;;;;;5071627;28;20040;-73
2021/06/12 09:19:09;;;;;;;5.90;2.33;;;21.50;84.50;;;;;;5070043;28;20163;-72
2021/06/12 09:21:36;;;;;;;5.18;2.65;;;21.70;82.00;;;;;;5071529;28;20038;-73
2021/06/12 09:24:04;;;;;;;6.10;2.28;;;21.90;81.60;;;;;;5071277;28;20098;-72
2021/06/12 09:26:47;;;;;;;5.10;2.35;;;22.00;81.60;;;;;;5071415;28;20037;-73
2021/06/12 09:29:18;;;;;;;5.47;1.98;;;21.70;81.90;;;;;;5068943;28;20044;-72
2021/06/12 09:31:49;;;;;;;8.05;2.10;;;21.80;83.50;;;;;;5071250;28;20035;-72
2021/06/12 09:34:19;;;;;;;5.45;2.67;;;22.00;83.80;;;;;;5071357;28;20055;-73
2021/06/12 09:36:47;;;;;;;4.85;2.10;;;22.10;81.60;;;;;;5070796;28;20029;-73
2021/06/12 09:39:24;;;;;;;7.93;2.08;;;22.20;76.30;;;;;;5071196;28;20440;-73
2021/06/12 09:41:54;;;;;;;5.82;2.08;;;22.20;77.90;;;;;;5071244;28;20043;-72
2021/06/12 09:44:38;;;;;;;5.97;2.05;;;22.00;77.60;;;;;;5071229;28;20037;-73
2021/06/12 09:47:10;;;;;;;4.93;2.15;;;22.00;81.50;;;;;;5070153;28;20041;-72
2021/06/12 09:49:38;;;;;;;5.15;1.98;;;22.20;78.00;;;;;;5071119;28;20032;-72
2021/06/12 09:52:12;;;;;;;4.55;1.65;;;22.30;75.00;;;;;;5071063;28;20037;-72
2021/06/12 09:54:51;;;;;;;4.55;1.83;;;22.20;77.30;;;;;;5071102;28;20048;-72
2021/06/12 09:57:25;;;;;;;4.65;1.95;;;22.40;78.70;;;;;;5071336;28;20102;-72
2021/06/12 09:59:55;;;;;;;4.10;1.92;;;22.40;78.90;;;;;;5070891;28;20363;-72
2021/06/12 10:02:38;;;;;;;9.52;2.22;;;22.50;79.10;;;;;;5071313;28;20048;-72
2021/06/12 10:05:07;;;;;;;3.28;1.60;;;22.10;71.80;;;;;;5050027;28;20630;-72
2021/06/12 10:07:33;;;;;;;4.85;1.42;;;22.20;75.10;;;;;;5061399;28;20040;-67
2021/06/12 10:10:03;;;;;;;4.07;1.50;;;22.30;77.50;;;;;;5052494;28;20056;-65
2021/06/12 10:12:29;;;;;;;3.42;1.77;;;22.40;77.50;;;;;;5067494;28;20029;-66
2021/06/12 10:14:57;;;;;;;5.95;1.58;;;22.60;78.40;;;;;;5071500;28;20044;-66
2021/06/12 10:17:23;;;;;;;4.45;1.45;;;22.50;69.80;;;;;;5056507;28;20140;-65
2021/06/12 10:19:53;;;;;;;2.38;1.50;;;22.70;77.90;;;;;;5051202;28;20547;-65
2021/06/12 10:22:19;;;;;;;5.18;1.33;;;22.70;73.70;;;;;;5053379;28;20474;-65
2021/06/12 10:24:47;;;;;;;3.22;1.30;;;22.90;76.00;;;;;;5071766;28;20036;-65
2021/06/12 10:27:14;;;;;;;3.63;1.40;;;23.20;75.70;;;;;;5060138;28;20060;-65
2021/06/12 10:29:43;;;;;;;4.03;1.55;;;23.20;72.50;;;;;;5051019;28;20041;-65
2021/06/12 10:32:10;;;;;;;3.38;1.27;;;23.10;69.70;;;;;;5065836;28;20036;-66
2021/06/12 10:34:37;;;;;;;4.57;1.23;;;23.10;67.90;;;;;;5054684;28;20137;-65
2021/06/12 10:37:06;;;;;;;2.85;1.23;;;23.10;70.90;;;;;;5051233;28;20037;-65
2021/06/12 10:39:34;;;;;;;3.83;1.10;;;23.20;65.60;;;;;;5058764;28;20055;-66
2021/06/12 10:42:23;;;;;;;5.25;1.63;;;23.20;67.50;;;;;;5070606;28;20428;-67
2021/06/12 10:44:51;;;;;;;3.38;1.38;;;23.30;66.40;;;;;;5045375;28;20102;-65
2021/06/12 10:47:37;;;;;;;3.22;1.20;;;23.40;68.60;;;;;;5071934;28;20116;-64
2021/06/12 10:50:25;;;;;;;3.22;1.30;;;23.50;71.80;;;;;;5073745;28;20052;-66
2021/06/12 10:52:52;;;;;;;3.05;1.52;;;23.20;65.30;;;;;;5043314;28;20057;-67
2021/06/12 10:55:41;;;;;;;3.83;1.40;;;23.10;66.20;;;;;;5066898;28;20124;-67
2021/06/12 10:58:31;;;;;;;3.05;1.63;;;23.00;70.00;;;;;;5063009;28;20037;-67
2021/06/12 11:01:11;;;;;;;4.07;1.50;;;23.00;74.50;;;;;;5054397;28;20076;-68
2021/06/12 11:09:14;;;;;;;2.00;1.20;;;22.90;70.00;;;;;;5066865;28;20090;-67
2021/06/12 11:11:49;;;;;;;6.40;1.40;;;22.90;71.00;;;;;;5073856;28;20032;-67
2021/06/12 11:14:20;;;;;;;4.70;1.42;;;22.80;64.30;;;;;;5067460;28;20163;-67
2021/06/12 11:17:05;;;;;;;5.90;1.50;;;22.80;67.10;;;;;;5064745;28;20043;-67
2021/06/12 11:19:35;;;;;;;2.60;1.40;;;22.80;68.80;;;;;;5058844;28;20067;-67
2021/06/12 11:22:25;;;;;;;4.45;1.60;;;22.80;71.30;;;;;;5070758;28;20024;-66
2021/06/12 11:24:55;;;;;;;4.72;1.40;;;22.70;69.10;;;;;;5036080;28;20445;-68
2021/06/12 11:27:37;;;;;;;5.55;1.70;;;22.40;66.20;;;;;;5053679;28;20037;-66
2021/06/12 11:30:21;;;;;;;6.07;1.58;;;22.80;68.00;;;;;;5053777;28;20045;-66
2021/06/12 11:32:55;;;;;;;5.68;1.73;;;22.70;67.90;;;;;;5053621;28;20040;-66
2021/06/12 11:35:44;;;;;;;6.38;1.63;;;22.70;65.60;;;;;;5059559;28;20040;-66
2021/06/12 11:38:31;;;;;;;5.75;1.42;;;22.60;72.10;;;;;;5055499;28;20037;-66
2021/06/12 11:41:00;;;;;;;4.20;1.48;;;22.90;69.30;;;;;;5073513;28;20037;-66
2021/06/12 11:43:33;;;;;;;3.95;1.20;;;22.90;66.30;;;;;;5073412;28;20090;-66
2021/06/12 11:46:03;;;;;;;5.35;1.20;;;23.00;65.60;;;;;;5073348;28;20036;-66
2021/06/12 11:48:29;;;;;;;1.38;1.00;;;23.10;67.20;;;;;;5055404;28;20051;-66
2021/06/12 11:50:57;;;;;;;2.55;0.93;;;23.30;65.30;;;;;;5072407;28;20037;-66
2021/06/12 11:53:34;;;;;;;3.30;1.27;;;23.50;68.40;;;;;;5072796;28;20029;-66
2021/06/12 11:56:00;;;;;;;5.25;1.27;;;23.50;63.40;;;;;;5070069;28;20408;-65
2021/06/12 11:58:26;;;;;;;2.60;1.15;;;23.40;67.80;;;;;;5072136;28;20041;-66
2021/06/12 12:00:52;;;;;;;2.60;0.90;;;23.40;62.50;;;;;;5072703;28;20608;-66
2021/06/12 12:03:18;;;;;;;2.20;0.93;;;23.30;64.20;;;;;;5071395;28;20119;-66
2021/06/12 12:05:46;;;;;;;2.53;1.00;;;23.30;68.10;;;;;;5072187;28;20040;-66
2021/06/12 12:08:20;;;;;;;3.25;1.00;;;23.30;65.80;;;;;;5071850;28;20055;-66
2021/06/12 12:10:51;;;;;;;4.43;1.13;;;23.10;64.60;;;;;;5039581;28;20513;-67
2021/06/12 12:13:38;;;;;;;3.22;0.93;;;23.00;60.00;;;;;;5060689;28;20032;-65
2021/06/12 12:16:22;;;;;;;1.48;0.90;;;23.00;62.10;;;;;;5072821;28;20033;-64
2021/06/12 12:18:51;;;;;;;2.90;1.27;;;23.30;66.00;;;;;;5069286;28;20033;-65
2021/06/12 12:21:36;;;;;;;3.40;1.00;;;23.40;67.00;;;;;;5043872;28;20064;-65
2021/06/12 12:24:04;;;;;;;3.00;1.05;;;22.80;61.20;;;;;;5071975;28;20048;-65
2021/06/12 12:26:30;;;;;;;4.60;1.45;;;22.80;62.90;;;;;;5060574;28;20036;-65
2021/06/12 12:29:04;;;;;;;2.47;1.10;;;22.80;67.20;;;;;;5072823;28;20090;-65
2021/06/12 12:31:31;;;;;;;3.78;1.40;;;23.10;66.30;;;;;;5070359;28;20036;-65
2021/06/12 12:33:59;;;;;;;2.70;1.10;;;22.90;63.60;;;;;;5072683;28;20041;-65
2021/06/12 12:36:26;;;;;;;3.00;1.52;;;22.90;64.50;;;;;;5045321;28;20040;-65
2021/06/12 12:39:04;;;;;;;3.13;1.48;;;22.50;64.60;;;;;;5073087;28;20512;-66
2021/06/12 12:41:31;;;;;;;4.90;1.48;;;22.80;67.50;;;;;;5073135;28;20058;-64
2021/06/12 12:44:25;;;;;;;4.75;1.48;;;22.90;66.20;;;;;;5072871;28;20437;-65
2021/06/12 12:46:52;;;;;;;4.72;1.23;;;22.40;63.80;;;;;;5069296;28;20551;-64
2021/06/12 12:49:25;;;;;;;6.13;1.60;;;22.30;64.50;;;;;;5072884;28;20045;-64
2021/06/12 12:51:59;;;;;;;2.50;1.20;;;22.20;69.00;;;;;;5073013;28;20047;-65
2021/06/12 12:54:35;;;;;;;5.10;1.40;;;22.10;67.20;;;;;;5072459;28;20469;-65
2021/06/12 12:57:08;;;;;;;5.60;1.38;;;22.20;71.00;;;;;;5070138;28;20091;-65
2021/06/12 12:59:44;;;;;;;2.20;1.20;;;22.30;67.10;;;;;;5052499;28;20033;-65
2021/06/12 13:02:11;;;;;;;3.38;1.70;;;22.20;68.50;;;;;;5053098;28;20045;-65
2021/06/12 13:04:43;;;;;;;3.40;1.20;;;22.20;69.60;;;;;;5067980;28;20033;-65
2021/06/12 13:07:10;;;;;;;;;;;21.50;68.00;;;;;;5072750;28;20072;-65
2021/06/12 13:09:37;;;;;;;5.38;1.60;;;21.20;68.40;;;;;;5072175;28;19920;-65
2021/06/12 13:12:10;;;;;;;5.63;1.67;;;21.20;74.30;;;;;;5059148;28;20051;-65
2021/06/12 13:14:43;;;;;;;5.05;1.88;;;21.20;71.40;;;;;;5052144;28;20119;-65
2021/06/12 13:17:20;;;;;;;4.00;1.60;;;21.30;73.60;;;;;;5071455;28;20040;-65
2021/06/12 13:19:49;;;;;;;3.75;1.50;;;21.50;74.50;;;;;;5062725;28;20044;-65
2021/06/12 13:22:28;;;;;;;5.03;1.55;;;21.70;73.20;;;;;;5063583;28;20043;-65
2021/06/12 13:24:56;;;;;;;2.95;1.23;;;21.70;70.00;;;;;;5085895;22;20118;-64